Aérodrome :
LOGIN :

S'inscrire | Disclaimer

   EN    FR    IT 

 










Légende :    VFR   VFR Marginal   IFR   IFR Intensif   IFR Très Intensif
Visi : 
Plafond : 
>= 8 km
>= 3000ft
5 à 8 km
1000 à 3000 ft
1500m à 5 km
500 à 1000 ft
800 à 1500m
200 à 500 ft
< 800m
< 200 ft
Symboles :   Orages  Brouillard  Fortes neiges  Fortes précipitations  Vent > 20 kt
SIGMETs :   Divers  Orages  Givrage  Turbulence  Onde Orograph.  Cendres Volcan.







- Altitude de l'aérodrome : 463 ft
- Code IATA : QAS


DAOI - Chlef Int.

DERNIER METAR :
  • 202200Z 00000KT CAVOK 29/13 Q1011

METARs EXPIRÉS :
  • 202100Z 18005KT CAVOK 30/14 Q1011
  • 202000Z 33011KT CAVOK 31/15 Q1010

TAF TAF DAOI
Valide du 20 à 18h jusqu'au 21 à 18h UTC


201700Z 2018/2118 33010KT CAVOK
BECMG 2020/2023 VRB02KT
PROB30
TEMPO 2104/2107 3000 BR SCT010
BECMG 2109/2112 31012K
Pas de NOTAMs connus pour ce terrain.
3 SIGMETs publiés pour la FIR Alger (DAAA) :
 
Orages noyés dans la masse
DAAA SIGMET 5 VALID 201800/202200 DAMM
DAAA ALGIERS FIR ISOL EMBD TS OBS WI N2332 E00503 - N2256 E00633 - N1950 E000159 - N2147 E00057 - N2332 E00503 TOP FL380 SNTR NC=
Orages noyés dans la masse
DAAA SIGMET 4 VALID 201800/202200 DAMM
DAAA ALGIERS FIR ISOL EMBD TS OBS WI N3530 E00706 - N3626 E00909 - N3445 E00847 - N3530 E00706 TOP FL380 MOV E INTSF=
Orages noyés dans la masse
DAAA SIGMET 3 VALID 201800/202200 DAMM
DAAA ALGIERS FIR ISOL EMBD TS OBS WI N3328 W00042 - N3441 E00011 - N3528 E00238 - N3430 E00246 - N3328 W00042 TOP FL380 MOV E INTSF=



MET'MAP, la Météo Aéronautique d'un coup d'oeil ! - Copyright ORBIFLY Décembre 2007 - Disclaimer

ORBIFLY MET'MAP TEAM :

Programmation & Développement : Alexandra Zaïnal
Conception & Développement : Baudouin d'Aumeries
Co-Programmation & Développement : Marc-Olivier Méhu
Soutien technique & logistique : Manuel Goepfert

Contact : metmap@orbifly.com




SOURCES & CREDITS :

   NOAA